sensor_id;sensor_type;location;lat;lon;timestamp;P1;durP1;ratioP1;P2;durP2;ratioP2
64469;SDS011;50854;48.538;14.352;2023-04-03T00:00:29;8.07;;;5.33;;
64469;SDS011;50854;48.538;14.352;2023-04-03T00:01:29;8.67;;;5.50;;
64469;SDS011;50854;48.538;14.352;2023-04-03T00:02:30;9.17;;;5.37;;
64469;SDS011;50854;48.538;14.352;2023-04-03T00:03:30;10.67;;;5.43;;
64469;SDS011;50854;48.538;14.352;2023-04-03T00:04:30;8.67;;;5.47;;
64469;SDS011;50854;48.538;14.352;2023-04-03T00:05:30;7.63;;;5.30;;
64469;SDS011;50854;48.538;14.352;2023-04-03T00:06:31;7.50;;;5.30;;
64469;SDS011;50854;48.538;14.352;2023-04-03T00:07:31;8.90;;;5.93;;
64469;SDS011;50854;48.538;14.352;2023-04-03T00:08:31;6.43;;;5.20;;
64469;SDS011;50854;48.538;14.352;2023-04-03T00:09:32;7.95;;;5.40;;
64469;SDS011;50854;48.538;14.352;2023-04-03T00:10:32;8.60;;;5.70;;
64469;SDS011;50854;48.538;14.352;2023-04-03T00:11:33;8.83;;;5.23;;
64469;SDS011;50854;48.538;14.352;2023-04-03T00:12:33;9.03;;;5.50;;
64469;SDS011;50854;48.538;14.352;2023-04-03T00:13:33;6.83;;;5.03;;
64469;SDS011;50854;48.538;14.352;2023-04-03T00:14:33;7.90;;;5.10;;
64469;SDS011;50854;48.538;14.352;2023-04-03T00:15:34;8.40;;;5.03;;
64469;SDS011;50854;48.538;14.352;2023-04-03T00:16:35;8.23;;;5.57;;
64469;SDS011;50854;48.538;14.352;2023-04-03T00:17:35;9.63;;;5.50;;
64469;SDS011;50854;48.538;14.352;2023-04-03T00:18:36;6.63;;;4.17;;
64469;SDS011;50854;48.538;14.352;2023-04-03T00:19:36;6.47;;;4.95;;
64469;SDS011;50854;48.538;14.352;2023-04-03T00:20:36;7.20;;;4.90;;
64469;SDS011;50854;48.538;14.352;2023-04-03T00:21:37;7.22;;;5.50;;
64469;SDS011;50854;48.538;14.352;2023-04-03T00:22:37;7.33;;;5.23;;
64469;SDS011;50854;48.538;14.352;2023-04-03T00:23:37;8.60;;;5.10;;
64469;SDS011;50854;48.538;14.352;2023-04-03T00:24:38;7.10;;;5.03;;
64469;SDS011;50854;48.538;14.352;2023-04-03T00:25:38;9.30;;;5.97;;
64469;SDS011;50854;48.538;14.352;2023-04-03T00:26:38;9.57;;;6.13;;
64469;SDS011;50854;48.538;14.352;2023-04-03T00:27:39;10.17;;;6.03;;
64469;SDS011;50854;48.538;14.352;2023-04-03T00:28:39;7.90;;;5.25;;
64469;SDS011;50854;48.538;14.352;2023-04-03T00:29:39;8.27;;;5.27;;
64469;SDS011;50854;48.538;14.352;2023-04-03T00:30:40;7.97;;;5.40;;
64469;SDS011;50854;48.538;14.352;2023-04-03T00:31:40;9.18;;;5.50;;
64469;SDS011;50854;48.538;14.352;2023-04-03T00:32:41;7.77;;;5.63;;
64469;SDS011;50854;48.538;14.352;2023-04-03T00:33:41;8.73;;;6.27;;
64469;SDS011;50854;48.538;14.352;2023-04-03T00:34:41;10.80;;;6.37;;
64469;SDS011;50854;48.538;14.352;2023-04-03T00:35:42;8.50;;;6.10;;
64469;SDS011;50854;48.538;14.352;2023-04-03T00:36:42;7.47;;;6.10;;
64469;SDS011;50854;48.538;14.352;2023-04-03T00:37:43;9.23;;;5.47;;
64469;SDS011;50854;48.538;14.352;2023-04-03T00:38:43;8.27;;;5.57;;
64469;SDS011;50854;48.538;14.352;2023-04-03T00:39:43;7.57;;;5.43;;
64469;SDS011;50854;48.538;14.352;2023-04-03T00:40:45;12.23;;;6.33;;
64469;SDS011;50854;48.538;14.352;2023-04-03T00:41:45;7.13;;;5.40;;
64469;SDS011;50854;48.538;14.352;2023-04-03T00:42:46;8.60;;;5.75;;
64469;SDS011;50854;48.538;14.352;2023-04-03T00:43:47;8.32;;;5.75;;
64469;SDS011;50854;48.538;14.352;2023-04-03T00:45:49;8.50;;;5.20;;
64469;SDS011;50854;48.538;14.352;2023-04-03T00:46:50;7.97;;;5.45;;
64469;SDS011;50854;48.538;14.352;2023-04-03T00:47:50;8.53;;;4.70;;
64469;SDS011;50854;48.538;14.352;2023-04-03T00:48:51;8.80;;;5.18;;
64469;SDS011;50854;48.538;14.352;2023-04-03T00:49:51;9.03;;;5.17;;
64469;SDS011;50854;48.538;14.352;2023-04-03T00:50:52;6.97;;;4.95;;
64469;SDS011;50854;48.538;14.352;2023-04-03T00:51:52;6.57;;;4.50;;
64469;SDS011;50854;48.538;14.352;2023-04-03T00:52:53;5.93;;;4.30;;
64469;SDS011;50854;48.538;14.352;2023-04-03T00:53:54;6.40;;;4.97;;
64469;SDS011;50854;48.538;14.352;2023-04-03T00:54:57;6.97;;;4.78;;
64469;SDS011;50854;48.538;14.352;2023-04-03T00:55:58;8.57;;;5.10;;
64469;SDS011;50854;48.538;14.352;2023-04-03T00:56:58;7.80;;;4.80;;
64469;SDS011;50854;48.538;14.352;2023-04-03T00:57:58;7.20;;;4.80;;
64469;SDS011;50854;48.538;14.352;2023-04-03T00:59:01;10.15;;;4.45;;
64469;SDS011;50854;48.538;14.352;2023-04-03T01:00:08;5.57;;;3.97;;
64469;SDS011;50854;48.538;14.352;2023-04-03T01:01:10;7.57;;;4.78;;
64469;SDS011;50854;48.538;14.352;2023-04-03T01:02:12;7.47;;;4.72;;
64469;SDS011;50854;48.538;14.352;2023-04-03T01:03:12;7.18;;;5.30;;
64469;SDS011;50854;48.538;14.352;2023-04-03T01:05:28;6.72;;;5.10;;
64469;SDS011;50854;48.538;14.352;2023-04-03T01:06:29;7.73;;;4.80;;
64469;SDS011;50854;48.538;14.352;2023-04-03T01:07:33;5.82;;;4.68;;
64469;SDS011;50854;48.538;14.352;2023-04-03T01:08:35;9.57;;;4.72;;
64469;SDS011;50854;48.538;14.352;2023-04-03T01:09:35;10.47;;;5.27;;
64469;SDS011;50854;48.538;14.352;2023-04-03T01:10:36;6.13;;;3.90;;
64469;SDS011;50854;48.538;14.352;2023-04-03T01:11:36;5.97;;;4.20;;
64469;SDS011;50854;48.538;14.352;2023-04-03T01:12:37;5.70;;;3.57;;
64469;SDS011;50854;48.538;14.352;2023-04-03T01:13:37;7.82;;;4.22;;
64469;SDS011;50854;48.538;14.352;2023-04-03T01:14:38;7.37;;;4.40;;
64469;SDS011;50854;48.538;14.352;2023-04-03T01:15:38;6.27;;;4.67;;
64469;SDS011;50854;48.538;14.352;2023-04-03T01:16:38;7.13;;;4.97;;
64469;SDS011;50854;48.538;14.352;2023-04-03T01:18:39;8.03;;;4.93;;
64469;SDS011;50854;48.538;14.352;2023-04-03T01:19:40;7.63;;;5.10;;
64469;SDS011;50854;48.538;14.352;2023-04-03T01:21:03;7.88;;;5.18;;
64469;SDS011;50854;48.538;14.352;2023-04-03T01:22:26;5.05;;;3.92;;
64469;SDS011;50854;48.538;14.352;2023-04-03T01:24:34;7.63;;;4.53;;
64469;SDS011;50854;48.538;14.352;2023-04-03T01:25:46;9.68;;;4.80;;
64469;SDS011;50854;48.538;14.352;2023-04-03T01:26:47;8.93;;;5.20;;
64469;SDS011;50854;48.538;14.352;2023-04-03T01:27:48;9.38;;;4.70;;
64469;SDS011;50854;48.538;14.352;2023-04-03T01:28:48;7.40;;;5.03;;
64469;SDS011;50854;48.538;14.352;2023-04-03T01:29:48;7.57;;;5.93;;
64469;SDS011;50854;48.538;14.352;2023-04-03T01:32:08;9.13;;;4.85;;
64469;SDS011;50854;48.538;14.352;2023-04-03T01:33:08;7.37;;;4.57;;
64469;SDS011;50854;48.538;14.352;2023-04-03T01:34:08;10.57;;;5.10;;
64469;SDS011;50854;48.538;14.352;2023-04-03T01:35:09;8.70;;;5.23;;
64469;SDS011;50854;48.538;14.352;2023-04-03T01:36:10;7.15;;;4.32;;
64469;SDS011;50854;48.538;14.352;2023-04-03T01:37:12;8.23;;;5.20;;
64469;SDS011;50854;48.538;14.352;2023-04-03T01:38:13;8.53;;;5.50;;
64469;SDS011;50854;48.538;14.352;2023-04-03T01:39:13;8.03;;;4.83;;
64469;SDS011;50854;48.538;14.352;2023-04-03T01:40:13;9.00;;;4.93;;
64469;SDS011;50854;48.538;14.352;2023-04-03T01:41:14;6.20;;;5.03;;
64469;SDS011;50854;48.538;14.352;2023-04-03T01:42:15;9.77;;;5.90;;
64469;SDS011;50854;48.538;14.352;2023-04-03T01:43:16;8.10;;;4.87;;
64469;SDS011;50854;48.538;14.352;2023-04-03T04:14:05;14.53;;;6.03;;
64469;SDS011;50854;48.538;14.352;2023-04-03T04:15:06;7.97;;;5.05;;
64469;SDS011;50854;48.538;14.352;2023-04-03T04:16:06;13.60;;;6.53;;
64469;SDS011;50854;48.538;14.352;2023-04-03T04:17:07;11.05;;;6.00;;
64469;SDS011;50854;48.538;14.352;2023-04-03T04:18:07;7.73;;;5.93;;
64469;SDS011;50854;48.538;14.352;2023-04-03T04:19:07;9.00;;;6.17;;
64469;SDS011;50854;48.538;14.352;2023-04-03T04:20:08;8.53;;;5.03;;
64469;SDS011;50854;48.538;14.352;2023-04-03T04:21:08;14.05;;;6.65;;
64469;SDS011;50854;48.538;14.352;2023-04-03T04:22:08;12.83;;;6.80;;
64469;SDS011;50854;48.538;14.352;2023-04-03T04:23:09;9.70;;;5.83;;
64469;SDS011;50854;48.538;14.352;2023-04-03T04:24:09;12.13;;;6.43;;
64469;SDS011;50854;48.538;14.352;2023-04-03T04:25:09;12.37;;;6.27;;
64469;SDS011;50854;48.538;14.352;2023-04-03T04:26:10;7.38;;;5.30;;
64469;SDS011;50854;48.538;14.352;2023-04-03T04:27:10;9.50;;;6.63;;
64469;SDS011;50854;48.538;14.352;2023-04-03T04:28:11;10.53;;;6.13;;
64469;SDS011;50854;48.538;14.352;2023-04-03T04:29:11;10.13;;;6.38;;
64469;SDS011;50854;48.538;14.352;2023-04-03T04:30:11;8.67;;;5.13;;
64469;SDS011;50854;48.538;14.352;2023-04-03T04:31:12;9.80;;;5.90;;
64469;SDS011;50854;48.538;14.352;2023-04-03T04:32:12;12.07;;;6.23;;
64469;SDS011;50854;48.538;14.352;2023-04-03T04:33:12;9.27;;;5.73;;
64469;SDS011;50854;48.538;14.352;2023-04-03T04:35:14;6.30;;;4.10;;
64469;SDS011;50854;48.538;14.352;2023-04-03T04:36:14;9.93;;;5.80;;
64469;SDS011;50854;48.538;14.352;2023-04-03T04:37:15;10.52;;;6.65;;
64469;SDS011;50854;48.538;14.352;2023-04-03T04:38:15;11.10;;;6.28;;
64469;SDS011;50854;48.538;14.352;2023-04-03T04:39:16;11.00;;;6.40;;
64469;SDS011;50854;48.538;14.352;2023-04-03T04:40:16;9.03;;;6.30;;
64469;SDS011;50854;48.538;14.352;2023-04-03T04:41:16;8.00;;;5.00;;
64469;SDS011;50854;48.538;14.352;2023-04-03T04:42:17;12.77;;;7.78;;
64469;SDS011;50854;48.538;14.352;2023-04-03T04:43:18;10.00;;;7.23;;
64469;SDS011;50854;48.538;14.352;2023-04-03T04:44:18;11.83;;;6.70;;
64469;SDS011;50854;48.538;14.352;2023-04-03T04:45:18;11.70;;;6.18;;
64469;SDS011;50854;48.538;14.352;2023-04-03T04:46:19;10.38;;;6.40;;
64469;SDS011;50854;48.538;14.352;2023-04-03T04:47:19;9.13;;;5.53;;
64469;SDS011;50854;48.538;14.352;2023-04-03T04:48:20;9.23;;;6.23;;
64469;SDS011;50854;48.538;14.352;2023-04-03T04:49:20;9.17;;;6.00;;
64469;SDS011;50854;48.538;14.352;2023-04-03T04:50:20;8.27;;;5.60;;
64469;SDS011;50854;48.538;14.352;2023-04-03T04:51:21;7.77;;;5.57;;
64469;SDS011;50854;48.538;14.352;2023-04-03T04:52:21;8.43;;;5.43;;
64469;SDS011;50854;48.538;14.352;2023-04-03T04:53:21;10.17;;;5.13;;
64469;SDS011;50854;48.538;14.352;2023-04-03T04:54:22;9.13;;;5.63;;
64469;SDS011;50854;48.538;14.352;2023-04-03T04:55:22;12.50;;;6.60;;
64469;SDS011;50854;48.538;14.352;2023-04-03T04:56:22;10.63;;;6.57;;
64469;SDS011;50854;48.538;14.352;2023-04-03T04:57:23;11.10;;;6.00;;
64469;SDS011;50854;48.538;14.352;2023-04-03T04:58:23;8.50;;;5.80;;
64469;SDS011;50854;48.538;14.352;2023-04-03T04:59:23;8.47;;;5.73;;
64469;SDS011;50854;48.538;14.352;2023-04-03T05:00:23;10.30;;;5.97;;
64469;SDS011;50854;48.538;14.352;2023-04-03T05:01:24;9.75;;;6.03;;
64469;SDS011;50854;48.538;14.352;2023-04-03T05:02:24;11.43;;;6.63;;
64469;SDS011;50854;48.538;14.352;2023-04-03T05:03:25;10.10;;;5.80;;
64469;SDS011;50854;48.538;14.352;2023-04-03T05:04:25;8.20;;;5.00;;
64469;SDS011;50854;48.538;14.352;2023-04-03T05:05:25;11.53;;;6.20;;
64469;SDS011;50854;48.538;14.352;2023-04-03T05:06:26;8.00;;;5.60;;
64469;SDS011;50854;48.538;14.352;2023-04-03T05:07:26;13.43;;;6.47;;
64469;SDS011;50854;48.538;14.352;2023-04-03T05:08:26;10.73;;;6.30;;
64469;SDS011;50854;48.538;14.352;2023-04-03T05:09:27;8.70;;;6.63;;
64469;SDS011;50854;48.538;14.352;2023-04-03T05:10:27;13.87;;;7.17;;
64469;SDS011;50854;48.538;14.352;2023-04-03T05:11:27;9.63;;;7.07;;
64469;SDS011;50854;48.538;14.352;2023-04-03T05:12:28;11.20;;;6.67;;
64469;SDS011;50854;48.538;14.352;2023-04-03T05:13:28;11.40;;;7.53;;
64469;SDS011;50854;48.538;14.352;2023-04-03T05:14:28;9.10;;;6.90;;
64469;SDS011;50854;48.538;14.352;2023-04-03T05:15:28;9.97;;;5.90;;
64469;SDS011;50854;48.538;14.352;2023-04-03T05:16:29;10.63;;;6.07;;
64469;SDS011;50854;48.538;14.352;2023-04-03T05:17:29;8.20;;;5.90;;
64469;SDS011;50854;48.538;14.352;2023-04-03T05:18:29;8.43;;;6.03;;
64469;SDS011;50854;48.538;14.352;2023-04-03T05:19:30;8.80;;;5.80;;
64469;SDS011;50854;48.538;14.352;2023-04-03T05:20:30;10.60;;;6.67;;
64469;SDS011;50854;48.538;14.352;2023-04-03T05:21:31;10.85;;;6.10;;
64469;SDS011;50854;48.538;14.352;2023-04-03T05:22:32;12.98;;;6.07;;
64469;SDS011;50854;48.538;14.352;2023-04-03T05:23:32;13.57;;;6.40;;
64469;SDS011;50854;48.538;14.352;2023-04-03T05:24:32;9.43;;;6.43;;
64469;SDS011;50854;48.538;14.352;2023-04-03T05:25:33;13.30;;;6.63;;
64469;SDS011;50854;48.538;14.352;2023-04-03T05:26:33;10.60;;;6.43;;
64469;SDS011;50854;48.538;14.352;2023-04-03T05:27:33;14.53;;;6.40;;
64469;SDS011;50854;48.538;14.352;2023-04-03T05:28:34;11.63;;;6.13;;
64469;SDS011;50854;48.538;14.352;2023-04-03T05:29:34;12.10;;;6.40;;
64469;SDS011;50854;48.538;14.352;2023-04-03T05:30:35;8.53;;;5.60;;
64469;SDS011;50854;48.538;14.352;2023-04-03T05:31:35;11.97;;;5.67;;
64469;SDS011;50854;48.538;14.352;2023-04-03T05:32:35;11.20;;;6.47;;
64469;SDS011;50854;48.538;14.352;2023-04-03T05:33:35;10.37;;;5.73;;
64469;SDS011;50854;48.538;14.352;2023-04-03T05:34:36;14.40;;;6.93;;
64469;SDS011;50854;48.538;14.352;2023-04-03T05:35:37;10.73;;;6.60;;
64469;SDS011;50854;48.538;14.352;2023-04-03T05:36:43;14.40;;;6.80;;
64469;SDS011;50854;48.538;14.352;2023-04-03T05:37:43;12.48;;;6.78;;
64469;SDS011;50854;48.538;14.352;2023-04-03T05:38:43;10.17;;;7.47;;
64469;SDS011;50854;48.538;14.352;2023-04-03T05:39:44;12.03;;;6.93;;
64469;SDS011;50854;48.538;14.352;2023-04-03T05:40:44;11.43;;;7.43;;
64469;SDS011;50854;48.538;14.352;2023-04-03T05:41:44;10.13;;;6.97;;
64469;SDS011;50854;48.538;14.352;2023-04-03T05:42:45;13.67;;;6.67;;
64469;SDS011;50854;48.538;14.352;2023-04-03T05:43:45;11.25;;;7.35;;
64469;SDS011;50854;48.538;14.352;2023-04-03T05:44:46;12.17;;;7.60;;
64469;SDS011;50854;48.538;14.352;2023-04-03T05:45:47;11.77;;;7.05;;
64469;SDS011;50854;48.538;14.352;2023-04-03T05:46:47;11.45;;;6.93;;
64469;SDS011;50854;48.538;14.352;2023-04-03T05:47:48;11.27;;;6.68;;
64469;SDS011;50854;48.538;14.352;2023-04-03T05:48:48;10.50;;;6.60;;
64469;SDS011;50854;48.538;14.352;2023-04-03T05:49:49;12.43;;;8.38;;
64469;SDS011;50854;48.538;14.352;2023-04-03T05:50:49;13.50;;;7.67;;
64469;SDS011;50854;48.538;14.352;2023-04-03T05:51:49;9.07;;;6.77;;
64469;SDS011;50854;48.538;14.352;2023-04-03T05:52:52;17.88;;;7.10;;
64469;SDS011;50854;48.538;14.352;2023-04-03T05:53:56;9.43;;;5.93;;
64469;SDS011;50854;48.538;14.352;2023-04-03T05:54:57;10.45;;;6.03;;
64469;SDS011;50854;48.538;14.352;2023-04-03T05:55:57;11.80;;;6.30;;
64469;SDS011;50854;48.538;14.352;2023-04-03T05:56:57;13.60;;;6.67;;
64469;SDS011;50854;48.538;14.352;2023-04-03T05:57:58;15.57;;;7.13;;
64469;SDS011;50854;48.538;14.352;2023-04-03T05:58:58;10.60;;;6.27;;
64469;SDS011;50854;48.538;14.352;2023-04-03T05:59:58;10.77;;;6.70;;
64469;SDS011;50854;48.538;14.352;2023-04-03T06:00:59;12.47;;;6.80;;
64469;SDS011;50854;48.538;14.352;2023-04-03T06:01:59;8.55;;;5.82;;
64469;SDS011;50854;48.538;14.352;2023-04-03T06:04:01;13.95;;;6.72;;
64469;SDS011;50854;48.538;14.352;2023-04-03T06:05:03;13.20;;;6.35;;
64469;SDS011;50854;48.538;14.352;2023-04-03T06:06:04;10.38;;;6.53;;
64469;SDS011;50854;48.538;14.352;2023-04-03T06:07:05;15.07;;;7.95;;
64469;SDS011;50854;48.538;14.352;2023-04-03T06:08:05;9.95;;;6.50;;
64469;SDS011;50854;48.538;14.352;2023-04-03T06:09:06;9.73;;;6.50;;
64469;SDS011;50854;48.538;14.352;2023-04-03T06:10:06;12.93;;;6.03;;
64469;SDS011;50854;48.538;14.352;2023-04-03T06:11:07;7.78;;;4.57;;
64469;SDS011;50854;48.538;14.352;2023-04-03T06:12:08;8.32;;;5.35;;
64469;SDS011;50854;48.538;14.352;2023-04-03T06:13:09;8.95;;;5.97;;
64469;SDS011;50854;48.538;14.352;2023-04-03T06:14:09;10.03;;;6.70;;
64469;SDS011;50854;48.538;14.352;2023-04-03T06:15:10;10.70;;;6.67;;
64469;SDS011;50854;48.538;14.352;2023-04-03T06:16:12;13.93;;;7.20;;
64469;SDS011;50854;48.538;14.352;2023-04-03T06:17:15;9.02;;;5.70;;
64469;SDS011;50854;48.538;14.352;2023-04-03T06:18:17;10.57;;;6.10;;
64469;SDS011;50854;48.538;14.352;2023-04-03T06:19:18;7.80;;;6.27;;
64469;SDS011;50854;48.538;14.352;2023-04-03T06:20:18;9.00;;;5.93;;
64469;SDS011;50854;48.538;14.352;2023-04-03T06:21:18;10.27;;;5.40;;
64469;SDS011;50854;48.538;14.352;2023-04-03T06:22:18;9.93;;;6.33;;
64469;SDS011;50854;48.538;14.352;2023-04-03T06:23:19;6.45;;;4.32;;
64469;SDS011;50854;48.538;14.352;2023-04-03T06:24:20;11.25;;;6.25;;
64469;SDS011;50854;48.538;14.352;2023-04-03T06:25:22;9.30;;;6.18;;
64469;SDS011;50854;48.538;14.352;2023-04-03T06:26:23;8.90;;;6.23;;
64469;SDS011;50854;48.538;14.352;2023-04-03T06:27:23;9.10;;;5.63;;
64469;SDS011;50854;48.538;14.352;2023-04-03T06:28:23;6.57;;;4.10;;
64469;SDS011;50854;48.538;14.352;2023-04-03T06:29:24;8.55;;;5.45;;
64469;SDS011;50854;48.538;14.352;2023-04-03T06:30:24;7.77;;;4.73;;
64469;SDS011;50854;48.538;14.352;2023-04-03T06:31:25;7.32;;;3.53;;
64469;SDS011;50854;48.538;14.352;2023-04-03T06:32:26;8.10;;;5.32;;
64469;SDS011;50854;48.538;14.352;2023-04-03T06:33:26;11.57;;;5.13;;
64469;SDS011;50854;48.538;14.352;2023-04-03T06:34:26;7.93;;;4.70;;
64469;SDS011;50854;48.538;14.352;2023-04-03T06:35:27;10.25;;;5.50;;
64469;SDS011;50854;48.538;14.352;2023-04-03T06:36:28;10.80;;;6.88;;
64469;SDS011;50854;48.538;14.352;2023-04-03T06:38:30;6.90;;;3.88;;
64469;SDS011;50854;48.538;14.352;2023-04-03T06:39:31;4.95;;;3.47;;
64469;SDS011;50854;48.538;14.352;2023-04-03T06:40:31;8.87;;;5.20;;
64469;SDS011;50854;48.538;14.352;2023-04-03T06:41:31;7.67;;;4.43;;
64469;SDS011;50854;48.538;14.352;2023-04-03T06:42:32;7.23;;;4.03;;
64469;SDS011;50854;48.538;14.352;2023-04-03T06:43:32;10.60;;;4.97;;
64469;SDS011;50854;48.538;14.352;2023-04-03T06:44:32;6.53;;;5.17;;
64469;SDS011;50854;48.538;14.352;2023-04-03T06:45:34;6.88;;;4.22;;
64469;SDS011;50854;48.538;14.352;2023-04-03T06:46:37;7.68;;;3.70;;
64469;SDS011;50854;48.538;14.352;2023-04-03T06:47:38;6.78;;;5.03;;
64469;SDS011;50854;48.538;14.352;2023-04-03T06:48:38;6.97;;;4.07;;
64469;SDS011;50854;48.538;14.352;2023-04-03T06:49:39;6.63;;;4.63;;
64469;SDS011;50854;48.538;14.352;2023-04-03T06:50:40;7.57;;;4.60;;
64469;SDS011;50854;48.538;14.352;2023-04-03T06:51:40;11.10;;;5.28;;
64469;SDS011;50854;48.538;14.352;2023-04-03T06:52:41;6.33;;;4.47;;
64469;SDS011;50854;48.538;14.352;2023-04-03T06:53:41;9.27;;;4.47;;
64469;SDS011;50854;48.538;14.352;2023-04-03T06:54:42;7.77;;;4.37;;
64469;SDS011;50854;48.538;14.352;2023-04-03T06:55:42;6.60;;;4.17;;
64469;SDS011;50854;48.538;14.352;2023-04-03T06:56:42;5.97;;;3.87;;
64469;SDS011;50854;48.538;14.352;2023-04-03T06:57:43;6.27;;;4.40;;
64469;SDS011;50854;48.538;14.352;2023-04-03T06:58:43;5.73;;;4.00;;
64469;SDS011;50854;48.538;14.352;2023-04-03T06:59:44;7.40;;;4.68;;
64469;SDS011;50854;48.538;14.352;2023-04-03T07:00:44;6.10;;;4.20;;
64469;SDS011;50854;48.538;14.352;2023-04-03T07:01:44;8.00;;;4.15;;
64469;SDS011;50854;48.538;14.352;2023-04-03T07:02:45;10.85;;;5.13;;
64469;SDS011;50854;48.538;14.352;2023-04-03T07:03:46;7.60;;;5.22;;
64469;SDS011;50854;48.538;14.352;2023-04-03T07:04:51;6.28;;;3.90;;
64469;SDS011;50854;48.538;14.352;2023-04-03T07:05:51;8.75;;;4.88;;
64469;SDS011;50854;48.538;14.352;2023-04-03T07:06:51;11.53;;;5.50;;
64469;SDS011;50854;48.538;14.352;2023-04-03T07:07:52;8.38;;;5.22;;
64469;SDS011;50854;48.538;14.352;2023-04-03T07:08:53;9.93;;;5.45;;
64469;SDS011;50854;48.538;14.352;2023-04-03T07:09:53;7.50;;;4.93;;
64469;SDS011;50854;48.538;14.352;2023-04-03T07:10:54;8.83;;;4.67;;
64469;SDS011;50854;48.538;14.352;2023-04-03T07:11:54;10.48;;;6.28;;
64469;SDS011;50854;48.538;14.352;2023-04-03T07:12:55;8.90;;;6.07;;
64469;SDS011;50854;48.538;14.352;2023-04-03T07:13:55;12.67;;;5.83;;
64469;SDS011;50854;48.538;14.352;2023-04-03T07:14:56;11.23;;;6.07;;
64469;SDS011;50854;48.538;14.352;2023-04-03T07:15:59;10.87;;;5.90;;
64469;SDS011;50854;48.538;14.352;2023-04-03T07:16:59;7.32;;;4.72;;
64469;SDS011;50854;48.538;14.352;2023-04-03T07:18:00;7.00;;;4.97;;
64469;SDS011;50854;48.538;14.352;2023-04-03T07:19:00;12.68;;;5.18;;
64469;SDS011;50854;48.538;14.352;2023-04-03T07:20:02;10.18;;;5.05;;
64469;SDS011;50854;48.538;14.352;2023-04-03T07:21:03;5.40;;;3.92;;
64469;SDS011;50854;48.538;14.352;2023-04-03T07:22:03;8.63;;;4.13;;
64469;SDS011;50854;48.538;14.352;2023-04-03T07:23:03;5.20;;;2.80;;
64469;SDS011;50854;48.538;14.352;2023-04-03T07:24:04;6.00;;;3.60;;
64469;SDS011;50854;48.538;14.352;2023-04-03T07:25:04;6.40;;;3.85;;
64469;SDS011;50854;48.538;14.352;2023-04-03T07:26:07;3.97;;;1.88;;
64469;SDS011;50854;48.538;14.352;2023-04-03T07:27:08;5.07;;;3.55;;
64469;SDS011;50854;48.538;14.352;2023-04-03T07:28:08;5.05;;;2.80;;
64469;SDS011;50854;48.538;14.352;2023-04-03T07:29:08;4.97;;;3.40;;
64469;SDS011;50854;48.538;14.352;2023-04-03T07:30:09;3.40;;;1.90;;
64469;SDS011;50854;48.538;14.352;2023-04-03T07:31:11;7.90;;;2.78;;
64469;SDS011;50854;48.538;14.352;2023-04-03T07:32:13;6.45;;;3.70;;
64469;SDS011;50854;48.538;14.352;2023-04-03T07:33:14;5.17;;;2.63;;
64469;SDS011;50854;48.538;14.352;2023-04-03T07:35:15;5.47;;;3.30;;
64469;SDS011;50854;48.538;14.352;2023-04-03T07:36:18;3.95;;;2.90;;
64469;SDS011;50854;48.538;14.352;2023-04-03T07:37:18;6.28;;;3.08;;
64469;SDS011;50854;48.538;14.352;2023-04-03T07:38:19;5.57;;;2.07;;
64469;SDS011;50854;48.538;14.352;2023-04-03T07:39:19;5.03;;;3.67;;
64469;SDS011;50854;48.538;14.352;2023-04-03T07:40:20;6.55;;;3.13;;
64469;SDS011;50854;48.538;14.352;2023-04-03T07:41:21;9.43;;;2.92;;
64469;SDS011;50854;48.538;14.352;2023-04-03T07:42:22;6.47;;;2.70;;
64469;SDS011;50854;48.538;14.352;2023-04-03T07:43:23;7.90;;;3.40;;
64469;SDS011;50854;48.538;14.352;2023-04-03T07:44:24;3.17;;;1.90;;
64469;SDS011;50854;48.538;14.352;2023-04-03T07:45:25;4.13;;;2.50;;
64469;SDS011;50854;48.538;14.352;2023-04-03T07:46:25;4.90;;;2.45;;
64469;SDS011;50854;48.538;14.352;2023-04-03T07:47:26;5.47;;;2.67;;
64469;SDS011;50854;48.538;14.352;2023-04-03T07:48:26;4.27;;;2.37;;
64469;SDS011;50854;48.538;14.352;2023-04-03T07:49:27;5.00;;;2.60;;
64469;SDS011;50854;48.538;14.352;2023-04-03T07:50:27;2.10;;;1.40;;
64469;SDS011;50854;48.538;14.352;2023-04-03T07:51:27;4.07;;;2.35;;
64469;SDS011;50854;48.538;14.352;2023-04-03T07:52:29;2.75;;;2.00;;
64469;SDS011;50854;48.538;14.352;2023-04-03T07:53:30;3.97;;;2.13;;
64469;SDS011;50854;48.538;14.352;2023-04-03T07:54:30;3.53;;;1.70;;
64469;SDS011;50854;48.538;14.352;2023-04-03T07:55:31;3.03;;;2.17;;
64469;SDS011;50854;48.538;14.352;2023-04-03T07:56:31;4.13;;;2.38;;
64469;SDS011;50854;48.538;14.352;2023-04-03T07:57:32;3.72;;;1.88;;
64469;SDS011;50854;48.538;14.352;2023-04-03T07:58:32;2.77;;;1.50;;
64469;SDS011;50854;48.538;14.352;2023-04-03T07:59:33;5.35;;;2.80;;
64469;SDS011;50854;48.538;14.352;2023-04-03T08:00:33;2.65;;;1.85;;
64469;SDS011;50854;48.538;14.352;2023-04-03T08:01:36;8.10;;;2.87;;
64469;SDS011;50854;48.538;14.352;2023-04-03T08:02:36;2.08;;;1.70;;
64469;SDS011;50854;48.538;14.352;2023-04-03T08:03:37;2.83;;;1.83;;
64469;SDS011;50854;48.538;14.352;2023-04-03T08:04:38;2.22;;;1.48;;
64469;SDS011;50854;48.538;14.352;2023-04-03T08:05:39;4.17;;;2.13;;
64469;SDS011;50854;48.538;14.352;2023-04-03T08:07:39;3.22;;;2.10;;
64469;SDS011;50854;48.538;14.352;2023-04-03T08:08:40;2.00;;;1.40;;
64469;SDS011;50854;48.538;14.352;2023-04-03T08:09:40;1.97;;;1.30;;
64469;SDS011;50854;48.538;14.352;2023-04-03T08:10:41;2.95;;;1.73;;
64469;SDS011;50854;48.538;14.352;2023-04-03T08:11:42;5.90;;;2.78;;
64469;SDS011;50854;48.538;14.352;2023-04-03T08:12:42;3.90;;;1.83;;
64469;SDS011;50854;48.538;14.352;2023-04-03T08:13:45;6.53;;;1.90;;
64469;SDS011;50854;48.538;14.352;2023-04-03T08:14:46;4.70;;;2.10;;
64469;SDS011;50854;48.538;14.352;2023-04-03T08:15:47;4.47;;;2.17;;
64469;SDS011;50854;48.538;14.352;2023-04-03T08:16:47;9.32;;;2.13;;
64469;SDS011;50854;48.538;14.352;2023-04-03T08:17:48;3.55;;;1.73;;
64469;SDS011;50854;48.538;14.352;2023-04-03T08:18:48;2.63;;;2.00;;
64469;SDS011;50854;48.538;14.352;2023-04-03T08:19:49;2.00;;;1.53;;
64469;SDS011;50854;48.538;14.352;2023-04-03T08:20:49;3.40;;;1.33;;
64469;SDS011;50854;48.538;14.352;2023-04-03T08:21:50;2.58;;;1.70;;
64469;SDS011;50854;48.538;14.352;2023-04-03T08:22:53;3.38;;;1.95;;
64469;SDS011;50854;48.538;14.352;2023-04-03T08:23:53;3.80;;;2.15;;
64469;SDS011;50854;48.538;14.352;2023-04-03T08:24:54;3.90;;;2.13;;
64469;SDS011;50854;48.538;14.352;2023-04-03T08:25:54;5.57;;;2.57;;
64469;SDS011;50854;48.538;14.352;2023-04-03T08:26:55;5.07;;;1.93;;
64469;SDS011;50854;48.538;14.352;2023-04-03T08:27:55;7.57;;;2.63;;
64469;SDS011;50854;48.538;14.352;2023-04-03T08:28:56;2.55;;;1.65;;
64469;SDS011;50854;48.538;14.352;2023-04-03T08:29:56;4.77;;;2.50;;
64469;SDS011;50854;48.538;14.352;2023-04-03T08:31:01;2.97;;;1.85;;
64469;SDS011;50854;48.538;14.352;2023-04-03T08:32:02;5.45;;;3.05;;
64469;SDS011;50854;48.538;14.352;2023-04-03T08:33:02;7.77;;;2.60;;
64469;SDS011;50854;48.538;14.352;2023-04-03T08:34:02;4.20;;;2.53;;
64469;SDS011;50854;48.538;14.352;2023-04-03T08:35:04;8.37;;;2.40;;
64469;SDS011;50854;48.538;14.352;2023-04-03T08:37:05;9.13;;;3.00;;
64469;SDS011;50854;48.538;14.352;2023-04-03T08:38:06;5.40;;;2.95;;
64469;SDS011;50854;48.538;14.352;2023-04-03T08:39:06;4.07;;;2.88;;
64469;SDS011;50854;48.538;14.352;2023-04-03T08:40:07;5.93;;;2.70;;
64469;SDS011;50854;48.538;14.352;2023-04-03T08:42:14;6.15;;;2.53;;